sensor_id;sensor_type;location;lat;lon;timestamp;P1;durP1;ratioP1;P2;durP2;ratioP2
21168;SDS011;10742;51.816;8.662;2023-12-20T00:01:54;15.27;;;6.63;;
21168;SDS011;10742;51.816;8.662;2023-12-20T00:05:16;14.80;;;6.50;;
21168;SDS011;10742;51.816;8.662;2023-12-20T00:08:37;15.00;;;6.80;;
21168;SDS011;10742;51.816;8.662;2023-12-20T00:11:58;13.30;;;5.97;;
21168;SDS011;10742;51.816;8.662;2023-12-20T00:15:19;12.87;;;5.80;;
21168;SDS011;10742;51.816;8.662;2023-12-20T00:18:40;14.53;;;6.13;;
21168;SDS011;10742;51.816;8.662;2023-12-20T00:22:01;13.50;;;5.90;;
21168;SDS011;10742;51.816;8.662;2023-12-20T00:25:24;12.77;;;5.60;;
21168;SDS011;10742;51.816;8.662;2023-12-20T00:28:45;11.97;;;5.57;;
21168;SDS011;10742;51.816;8.662;2023-12-20T00:32:07;12.03;;;5.57;;
21168;SDS011;10742;51.816;8.662;2023-12-20T00:35:28;13.20;;;5.83;;
21168;SDS011;10742;51.816;8.662;2023-12-20T00:38:49;14.10;;;5.17;;
21168;SDS011;10742;51.816;8.662;2023-12-20T00:42:11;16.47;;;5.50;;
21168;SDS011;10742;51.816;8.662;2023-12-20T00:45:32;11.73;;;5.13;;
21168;SDS011;10742;51.816;8.662;2023-12-20T00:48:54;10.17;;;5.10;;
21168;SDS011;10742;51.816;8.662;2023-12-20T00:52:15;11.50;;;5.13;;
21168;SDS011;10742;51.816;8.662;2023-12-20T00:55:38;10.30;;;4.50;;
21168;SDS011;10742;51.816;8.662;2023-12-20T00:58:59;10.53;;;4.50;;
21168;SDS011;10742;51.816;8.662;2023-12-20T01:02:20;10.57;;;4.23;;
21168;SDS011;10742;51.816;8.662;2023-12-20T01:05:42;11.27;;;4.40;;
21168;SDS011;10742;51.816;8.662;2023-12-20T01:09:03;10.87;;;4.50;;
21168;SDS011;10742;51.816;8.662;2023-12-20T01:12:24;11.63;;;4.17;;
21168;SDS011;10742;51.816;8.662;2023-12-20T01:15:45;9.80;;;4.17;;
21168;SDS011;10742;51.816;8.662;2023-12-20T01:19:08;9.13;;;3.67;;
21168;SDS011;10742;51.816;8.662;2023-12-20T01:22:29;10.20;;;3.60;;
21168;SDS011;10742;51.816;8.662;2023-12-20T01:25:50;9.00;;;3.57;;
21168;SDS011;10742;51.816;8.662;2023-12-20T01:29:11;8.20;;;3.43;;
21168;SDS011;10742;51.816;8.662;2023-12-20T01:32:33;6.97;;;3.30;;
21168;SDS011;10742;51.816;8.662;2023-12-20T01:35:55;7.17;;;2.80;;
21168;SDS011;10742;51.816;8.662;2023-12-20T01:39:17;6.00;;;2.27;;
21168;SDS011;10742;51.816;8.662;2023-12-20T01:42:40;7.47;;;2.73;;
21168;SDS011;10742;51.816;8.662;2023-12-20T01:46:02;11.10;;;2.90;;
21168;SDS011;10742;51.816;8.662;2023-12-20T01:49:23;9.13;;;2.97;;
21168;SDS011;10742;51.816;8.662;2023-12-20T01:52:45;6.60;;;3.03;;
21168;SDS011;10742;51.816;8.662;2023-12-20T01:56:06;10.13;;;3.27;;
21168;SDS011;10742;51.816;8.662;2023-12-20T01:59:28;7.00;;;2.93;;
21168;SDS011;10742;51.816;8.662;2023-12-20T02:02:51;8.27;;;2.97;;
21168;SDS011;10742;51.816;8.662;2023-12-20T02:06:14;8.60;;;3.20;;
21168;SDS011;10742;51.816;8.662;2023-12-20T02:09:36;7.60;;;2.63;;
21168;SDS011;10742;51.816;8.662;2023-12-20T02:12:59;10.33;;;2.97;;
21168;SDS011;10742;51.816;8.662;2023-12-20T02:16:23;7.80;;;2.97;;
21168;SDS011;10742;51.816;8.662;2023-12-20T02:19:45;10.83;;;3.30;;
21168;SDS011;10742;51.816;8.662;2023-12-20T02:23:06;13.00;;;3.90;;
21168;SDS011;10742;51.816;8.662;2023-12-20T02:26:27;9.33;;;2.80;;
21168;SDS011;10742;51.816;8.662;2023-12-20T02:29:49;10.83;;;2.90;;
21168;SDS011;10742;51.816;8.662;2023-12-20T02:33:12;12.00;;;3.00;;
21168;SDS011;10742;51.816;8.662;2023-12-20T02:36:35;14.33;;;3.73;;
21168;SDS011;10742;51.816;8.662;2023-12-20T02:39:56;8.57;;;2.60;;
21168;SDS011;10742;51.816;8.662;2023-12-20T02:43:17;9.63;;;3.17;;
21168;SDS011;10742;51.816;8.662;2023-12-20T02:46:38;9.00;;;3.17;;
21168;SDS011;10742;51.816;8.662;2023-12-20T02:50:00;11.23;;;2.73;;
21168;SDS011;10742;51.816;8.662;2023-12-20T02:53:21;9.77;;;3.03;;
21168;SDS011;10742;51.816;8.662;2023-12-20T02:56:43;8.93;;;3.10;;
21168;SDS011;10742;51.816;8.662;2023-12-20T03:00:04;9.87;;;3.43;;
21168;SDS011;10742;51.816;8.662;2023-12-20T03:03:26;7.57;;;3.33;;
21168;SDS011;10742;51.816;8.662;2023-12-20T03:06:47;11.63;;;3.53;;
21168;SDS011;10742;51.816;8.662;2023-12-20T03:10:09;10.90;;;3.47;;
21168;SDS011;10742;51.816;8.662;2023-12-20T03:13:30;9.57;;;3.17;;
21168;SDS011;10742;51.816;8.662;2023-12-20T03:16:52;9.20;;;3.33;;
21168;SDS011;10742;51.816;8.662;2023-12-20T03:20:13;12.20;;;3.73;;
21168;SDS011;10742;51.816;8.662;2023-12-20T03:23:34;9.80;;;3.63;;
21168;SDS011;10742;51.816;8.662;2023-12-20T03:26:56;11.00;;;4.27;;
21168;SDS011;10742;51.816;8.662;2023-12-20T03:30:17;12.57;;;4.07;;
21168;SDS011;10742;51.816;8.662;2023-12-20T03:33:38;11.80;;;4.03;;
21168;SDS011;10742;51.816;8.662;2023-12-20T03:37:00;12.40;;;4.07;;
21168;SDS011;10742;51.816;8.662;2023-12-20T03:40:21;11.60;;;4.40;;
21168;SDS011;10742;51.816;8.662;2023-12-20T03:43:43;16.47;;;4.70;;
21168;SDS011;10742;51.816;8.662;2023-12-20T03:47:04;9.20;;;4.17;;
21168;SDS011;10742;51.816;8.662;2023-12-20T03:50:25;13.40;;;4.00;;
21168;SDS011;10742;51.816;8.662;2023-12-20T03:53:47;15.07;;;4.70;;
21168;SDS011;10742;51.816;8.662;2023-12-20T03:57:08;13.37;;;4.03;;
21168;SDS011;10742;51.816;8.662;2023-12-20T04:00:29;14.63;;;4.10;;
21168;SDS011;10742;51.816;8.662;2023-12-20T04:03:50;14.10;;;4.33;;
21168;SDS011;10742;51.816;8.662;2023-12-20T04:07:12;13.93;;;4.07;;
21168;SDS011;10742;51.816;8.662;2023-12-20T04:10:33;14.40;;;4.00;;
21168;SDS011;10742;51.816;8.662;2023-12-20T04:13:55;20.67;;;4.37;;
21168;SDS011;10742;51.816;8.662;2023-12-20T04:17:17;9.87;;;3.93;;
21168;SDS011;10742;51.816;8.662;2023-12-20T04:20:38;8.90;;;3.40;;
21168;SDS011;10742;51.816;8.662;2023-12-20T04:23:59;15.03;;;4.17;;
21168;SDS011;10742;51.816;8.662;2023-12-20T04:27:21;14.10;;;3.77;;
21168;SDS011;10742;51.816;8.662;2023-12-20T04:30:43;13.97;;;3.93;;
21168;SDS011;10742;51.816;8.662;2023-12-20T04:34:04;10.83;;;3.87;;
21168;SDS011;10742;51.816;8.662;2023-12-20T04:37:25;16.70;;;3.43;;
21168;SDS011;10742;51.816;8.662;2023-12-20T04:40:47;17.23;;;4.20;;
21168;SDS011;10742;51.816;8.662;2023-12-20T04:44:09;9.83;;;3.67;;
21168;SDS011;10742;51.816;8.662;2023-12-20T04:47:30;15.47;;;3.50;;
21168;SDS011;10742;51.816;8.662;2023-12-20T04:50:51;14.53;;;3.37;;
21168;SDS011;10742;51.816;8.662;2023-12-20T04:54:12;11.50;;;3.70;;
21168;SDS011;10742;51.816;8.662;2023-12-20T04:57:35;22.73;;;3.73;;
21168;SDS011;10742;51.816;8.662;2023-12-20T05:00:56;14.50;;;3.43;;
21168;SDS011;10742;51.816;8.662;2023-12-20T05:04:17;12.83;;;3.33;;
21168;SDS011;10742;51.816;8.662;2023-12-20T05:07:38;18.77;;;3.30;;
21168;SDS011;10742;51.816;8.662;2023-12-20T05:11:00;14.60;;;4.00;;
21168;SDS011;10742;51.816;8.662;2023-12-20T05:14:22;16.03;;;3.40;;
21168;SDS011;10742;51.816;8.662;2023-12-20T05:17:43;14.70;;;3.00;;
21168;SDS011;10742;51.816;8.662;2023-12-20T05:21:04;16.77;;;3.30;;
21168;SDS011;10742;51.816;8.662;2023-12-20T05:24:25;13.00;;;2.60;;
21168;SDS011;10742;51.816;8.662;2023-12-20T05:27:47;12.53;;;3.47;;
21168;SDS011;10742;51.816;8.662;2023-12-20T05:31:09;13.63;;;3.00;;
21168;SDS011;10742;51.816;8.662;2023-12-20T05:34:30;18.70;;;4.00;;
21168;SDS011;10742;51.816;8.662;2023-12-20T05:37:52;19.20;;;3.47;;
21168;SDS011;10742;51.816;8.662;2023-12-20T05:41:13;16.73;;;3.73;;
21168;SDS011;10742;51.816;8.662;2023-12-20T05:44:35;15.33;;;3.57;;
21168;SDS011;10742;51.816;8.662;2023-12-20T05:47:57;16.67;;;3.73;;
21168;SDS011;10742;51.816;8.662;2023-12-20T05:51:19;15.53;;;4.20;;
21168;SDS011;10742;51.816;8.662;2023-12-20T05:54:40;20.43;;;4.70;;
21168;SDS011;10742;51.816;8.662;2023-12-20T05:58:01;16.00;;;3.77;;
21168;SDS011;10742;51.816;8.662;2023-12-20T06:01:23;16.77;;;3.73;;
21168;SDS011;10742;51.816;8.662;2023-12-20T06:04:45;12.57;;;3.80;;
21168;SDS011;10742;51.816;8.662;2023-12-20T06:08:06;18.60;;;4.40;;
21168;SDS011;10742;51.816;8.662;2023-12-20T06:11:28;12.27;;;3.93;;
21168;SDS011;10742;51.816;8.662;2023-12-20T06:14:49;17.97;;;4.10;;
21168;SDS011;10742;51.816;8.662;2023-12-20T06:18:10;18.17;;;4.07;;
21168;SDS011;10742;51.816;8.662;2023-12-20T06:21:32;22.80;;;4.60;;
21168;SDS011;10742;51.816;8.662;2023-12-20T06:24:53;21.53;;;5.17;;
21168;SDS011;10742;51.816;8.662;2023-12-20T06:28:14;16.47;;;4.37;;
21168;SDS011;10742;51.816;8.662;2023-12-20T06:31:36;19.93;;;5.13;;
21168;SDS011;10742;51.816;8.662;2023-12-20T06:34:57;11.77;;;3.90;;
21168;SDS011;10742;51.816;8.662;2023-12-20T06:38:19;14.57;;;4.57;;
21168;SDS011;10742;51.816;8.662;2023-12-20T06:41:41;17.20;;;4.37;;
21168;SDS011;10742;51.816;8.662;2023-12-20T06:45:03;15.73;;;5.10;;
21168;SDS011;10742;51.816;8.662;2023-12-20T06:48:25;19.77;;;4.57;;
21168;SDS011;10742;51.816;8.662;2023-12-20T06:51:47;21.53;;;5.40;;
21168;SDS011;10742;51.816;8.662;2023-12-20T06:55:08;17.87;;;5.27;;
21168;SDS011;10742;51.816;8.662;2023-12-20T06:58:30;13.63;;;4.80;;
21168;SDS011;10742;51.816;8.662;2023-12-20T07:01:51;21.03;;;4.97;;
21168;SDS011;10742;51.816;8.662;2023-12-20T07:05:12;19.90;;;4.87;;
21168;SDS011;10742;51.816;8.662;2023-12-20T07:08:37;19.83;;;4.80;;
21168;SDS011;10742;51.816;8.662;2023-12-20T07:11:59;18.20;;;4.80;;
21168;SDS011;10742;51.816;8.662;2023-12-20T07:15:21;21.00;;;5.60;;
21168;SDS011;10742;51.816;8.662;2023-12-20T07:18:42;26.40;;;5.50;;
21168;SDS011;10742;51.816;8.662;2023-12-20T07:22:05;17.13;;;6.00;;
21168;SDS011;10742;51.816;8.662;2023-12-20T07:25:26;20.07;;;6.07;;
21168;SDS011;10742;51.816;8.662;2023-12-20T07:28:48;18.83;;;6.20;;
21168;SDS011;10742;51.816;8.662;2023-12-20T07:32:10;19.77;;;6.20;;
21168;SDS011;10742;51.816;8.662;2023-12-20T07:35:31;16.87;;;5.67;;
21168;SDS011;10742;51.816;8.662;2023-12-20T07:38:52;21.57;;;6.03;;
21168;SDS011;10742;51.816;8.662;2023-12-20T07:42:14;19.97;;;6.13;;
21168;SDS011;10742;51.816;8.662;2023-12-20T07:45:35;21.80;;;6.37;;
21168;SDS011;10742;51.816;8.662;2023-12-20T07:48:56;19.30;;;5.93;;
21168;SDS011;10742;51.816;8.662;2023-12-20T07:52:18;20.00;;;6.23;;
21168;SDS011;10742;51.816;8.662;2023-12-20T07:55:40;21.77;;;6.30;;
21168;SDS011;10742;51.816;8.662;2023-12-20T07:59:01;23.87;;;6.37;;
21168;SDS011;10742;51.816;8.662;2023-12-20T08:02:23;20.60;;;6.77;;
21168;SDS011;10742;51.816;8.662;2023-12-20T08:05:44;19.40;;;6.30;;
21168;SDS011;10742;51.816;8.662;2023-12-20T08:09:05;20.57;;;6.57;;
21168;SDS011;10742;51.816;8.662;2023-12-20T08:12:27;23.17;;;6.37;;
21168;SDS011;10742;51.816;8.662;2023-12-20T08:15:48;19.93;;;6.03;;
21168;SDS011;10742;51.816;8.662;2023-12-20T08:19:10;20.87;;;5.90;;
21168;SDS011;10742;51.816;8.662;2023-12-20T08:22:31;21.70;;;6.03;;
21168;SDS011;10742;51.816;8.662;2023-12-20T08:26:07;22.07;;;6.53;;
21168;SDS011;10742;51.816;8.662;2023-12-20T08:29:28;20.80;;;6.10;;
21168;SDS011;10742;51.816;8.662;2023-12-20T08:32:50;23.63;;;6.53;;
21168;SDS011;10742;51.816;8.662;2023-12-20T08:36:12;17.00;;;5.77;;
21168;SDS011;10742;51.816;8.662;2023-12-20T08:39:34;24.37;;;6.43;;
21168;SDS011;10742;51.816;8.662;2023-12-20T08:42:55;18.30;;;5.20;;
21168;SDS011;10742;51.816;8.662;2023-12-20T08:46:16;24.57;;;5.73;;
21168;SDS011;10742;51.816;8.662;2023-12-20T08:49:38;21.17;;;5.60;;
21168;SDS011;10742;51.816;8.662;2023-12-20T08:53:00;23.47;;;6.17;;
21168;SDS011;10742;51.816;8.662;2023-12-20T08:56:21;20.53;;;5.40;;
21168;SDS011;10742;51.816;8.662;2023-12-20T08:59:42;21.13;;;5.67;;
21168;SDS011;10742;51.816;8.662;2023-12-20T09:03:04;21.30;;;5.50;;
21168;SDS011;10742;51.816;8.662;2023-12-20T09:06:25;16.83;;;5.23;;
21168;SDS011;10742;51.816;8.662;2023-12-20T09:09:47;17.70;;;5.37;;
21168;SDS011;10742;51.816;8.662;2023-12-20T09:13:08;22.53;;;6.00;;
21168;SDS011;10742;51.816;8.662;2023-12-20T09:16:30;18.63;;;5.27;;
21168;SDS011;10742;51.816;8.662;2023-12-20T09:19:52;22.27;;;5.57;;
21168;SDS011;10742;51.816;8.662;2023-12-20T09:23:14;26.87;;;5.70;;
21168;SDS011;10742;51.816;8.662;2023-12-20T09:26:35;23.30;;;5.50;;
21168;SDS011;10742;51.816;8.662;2023-12-20T09:29:57;22.70;;;5.80;;
21168;SDS011;10742;51.816;8.662;2023-12-20T09:33:18;20.70;;;5.23;;
21168;SDS011;10742;51.816;8.662;2023-12-20T09:36:39;17.97;;;5.57;;
21168;SDS011;10742;51.816;8.662;2023-12-20T09:40:07;25.70;;;5.63;;
21168;SDS011;10742;51.816;8.662;2023-12-20T09:43:31;18.10;;;5.80;;
21168;SDS011;10742;51.816;8.662;2023-12-20T09:46:58;19.23;;;6.00;;
21168;SDS011;10742;51.816;8.662;2023-12-20T09:50:21;22.83;;;6.47;;
21168;SDS011;10742;51.816;8.662;2023-12-20T09:53:42;20.97;;;5.43;;
21168;SDS011;10742;51.816;8.662;2023-12-20T09:57:05;17.27;;;5.53;;
21168;SDS011;10742;51.816;8.662;2023-12-20T10:00:26;14.20;;;5.07;;
21168;SDS011;10742;51.816;8.662;2023-12-20T10:03:47;21.20;;;6.03;;
21168;SDS011;10742;51.816;8.662;2023-12-20T10:07:11;25.10;;;6.60;;
21168;SDS011;10742;51.816;8.662;2023-12-20T10:10:33;14.40;;;5.20;;
21168;SDS011;10742;51.816;8.662;2023-12-20T10:14:00;19.03;;;5.63;;
21168;SDS011;10742;51.816;8.662;2023-12-20T10:17:23;18.70;;;5.50;;
21168;SDS011;10742;51.816;8.662;2023-12-20T10:20:46;25.83;;;6.57;;
21168;SDS011;10742;51.816;8.662;2023-12-20T10:24:09;20.07;;;5.37;;
21168;SDS011;10742;51.816;8.662;2023-12-20T10:27:37;20.03;;;5.93;;
21168;SDS011;10742;51.816;8.662;2023-12-20T10:30:58;19.10;;;5.57;;
21168;SDS011;10742;51.816;8.662;2023-12-20T10:34:20;18.30;;;5.47;;
21168;SDS011;10742;51.816;8.662;2023-12-20T10:37:41;20.30;;;5.90;;
21168;SDS011;10742;51.816;8.662;2023-12-20T10:41:02;16.40;;;5.20;;
21168;SDS011;10742;51.816;8.662;2023-12-20T10:44:26;17.67;;;5.10;;
21168;SDS011;10742;51.816;8.662;2023-12-20T10:47:48;20.63;;;5.37;;
21168;SDS011;10742;51.816;8.662;2023-12-20T10:51:11;16.07;;;5.10;;
21168;SDS011;10742;51.816;8.662;2023-12-20T10:54:32;20.63;;;5.53;;
21168;SDS011;10742;51.816;8.662;2023-12-20T10:58:01;14.67;;;4.90;;
21168;SDS011;10742;51.816;8.662;2023-12-20T11:01:26;16.97;;;4.77;;
21168;SDS011;10742;51.816;8.662;2023-12-20T11:04:53;20.83;;;4.70;;
21168;SDS011;10742;51.816;8.662;2023-12-20T11:12:25;16.50;;;4.37;;
21168;SDS011;10742;51.816;8.662;2023-12-20T11:16:02;19.00;;;5.30;;
21168;SDS011;10742;51.816;8.662;2023-12-20T11:19:24;17.93;;;5.57;;
21168;SDS011;10742;51.816;8.662;2023-12-20T11:22:52;16.60;;;5.20;;
21168;SDS011;10742;51.816;8.662;2023-12-20T11:26:22;18.60;;;5.10;;
21168;SDS011;10742;51.816;8.662;2023-12-20T11:29:58;19.07;;;5.83;;
21168;SDS011;10742;51.816;8.662;2023-12-20T11:33:32;19.97;;;4.80;;
21168;SDS011;10742;51.816;8.662;2023-12-20T11:36:57;20.03;;;4.77;;
21168;SDS011;10742;51.816;8.662;2023-12-20T11:40:20;26.93;;;5.40;;
21168;SDS011;10742;51.816;8.662;2023-12-20T11:43:43;16.90;;;4.70;;
21168;SDS011;10742;51.816;8.662;2023-12-20T11:47:05;13.50;;;4.20;;
21168;SDS011;10742;51.816;8.662;2023-12-20T11:50:28;17.07;;;4.43;;
21168;SDS011;10742;51.816;8.662;2023-12-20T11:53:51;18.20;;;4.20;;
21168;SDS011;10742;51.816;8.662;2023-12-20T11:57:14;19.30;;;4.33;;
21168;SDS011;10742;51.816;8.662;2023-12-20T12:00:35;18.77;;;4.03;;
21168;SDS011;10742;51.816;8.662;2023-12-20T12:04:03;17.10;;;3.87;;
21168;SDS011;10742;51.816;8.662;2023-12-20T12:07:27;12.90;;;3.30;;
21168;SDS011;10742;51.816;8.662;2023-12-20T12:10:49;10.10;;;3.17;;
21168;SDS011;10742;51.816;8.662;2023-12-20T12:14:11;15.47;;;3.87;;
21168;SDS011;10742;51.816;8.662;2023-12-20T12:17:32;15.53;;;3.13;;
21168;SDS011;10742;51.816;8.662;2023-12-20T12:20:59;10.17;;;3.23;;
21168;SDS011;10742;51.816;8.662;2023-12-20T12:24:22;14.43;;;4.17;;
21168;SDS011;10742;51.816;8.662;2023-12-20T12:27:43;16.60;;;3.53;;
21168;SDS011;10742;51.816;8.662;2023-12-20T12:31:05;20.20;;;3.97;;
21168;SDS011;10742;51.816;8.662;2023-12-20T12:34:29;16.80;;;3.13;;
21168;SDS011;10742;51.816;8.662;2023-12-20T12:37:51;13.80;;;3.50;;
21168;SDS011;10742;51.816;8.662;2023-12-20T12:41:13;11.67;;;3.37;;
21168;SDS011;10742;51.816;8.662;2023-12-20T12:44:36;11.57;;;3.17;;
21168;SDS011;10742;51.816;8.662;2023-12-20T12:47:57;12.07;;;3.40;;
21168;SDS011;10742;51.816;8.662;2023-12-20T12:51:18;16.30;;;3.50;;
21168;SDS011;10742;51.816;8.662;2023-12-20T12:54:40;16.37;;;4.00;;
21168;SDS011;10742;51.816;8.662;2023-12-20T12:58:03;18.50;;;3.50;;
21168;SDS011;10742;51.816;8.662;2023-12-20T13:01:25;11.60;;;3.33;;
21168;SDS011;10742;51.816;8.662;2023-12-20T13:04:46;17.47;;;3.37;;
21168;SDS011;10742;51.816;8.662;2023-12-20T13:08:08;12.30;;;3.50;;
21168;SDS011;10742;51.816;8.662;2023-12-20T13:11:30;13.67;;;3.73;;
21168;SDS011;10742;51.816;8.662;2023-12-20T13:14:55;12.97;;;3.80;;
21168;SDS011;10742;51.816;8.662;2023-12-20T13:18:16;17.33;;;4.10;;
21168;SDS011;10742;51.816;8.662;2023-12-20T13:21:41;13.80;;;3.80;;
21168;SDS011;10742;51.816;8.662;2023-12-20T13:25:02;16.07;;;3.23;;
21168;SDS011;10742;51.816;8.662;2023-12-20T13:28:23;15.60;;;3.60;;
21168;SDS011;10742;51.816;8.662;2023-12-20T13:31:45;14.77;;;3.50;;
21168;SDS011;10742;51.816;8.662;2023-12-20T13:35:06;14.27;;;3.20;;
21168;SDS011;10742;51.816;8.662;2023-12-20T13:38:28;14.97;;;3.23;;
21168;SDS011;10742;51.816;8.662;2023-12-20T13:41:49;24.20;;;3.83;;
21168;SDS011;10742;51.816;8.662;2023-12-20T13:45:10;18.20;;;4.10;;
21168;SDS011;10742;51.816;8.662;2023-12-20T13:48:31;12.43;;;3.70;;
21168;SDS011;10742;51.816;8.662;2023-12-20T13:51:53;13.33;;;3.10;;
21168;SDS011;10742;51.816;8.662;2023-12-20T13:55:19;15.93;;;3.10;;
21168;SDS011;10742;51.816;8.662;2023-12-20T13:58:42;10.23;;;3.10;;
21168;SDS011;10742;51.816;8.662;2023-12-20T14:02:04;18.53;;;4.03;;
21168;SDS011;10742;51.816;8.662;2023-12-20T14:05:26;10.53;;;3.00;;
21168;SDS011;10742;51.816;8.662;2023-12-20T14:08:48;16.75;;;3.40;;
21168;SDS011;10742;51.816;8.662;2023-12-20T14:12:10;5.80;;;1.80;;
21168;SDS011;10742;51.816;8.662;2023-12-20T14:15:31;4.67;;;1.60;;
21168;SDS011;10742;51.816;8.662;2023-12-20T14:18:57;3.30;;;1.30;;
21168;SDS011;10742;51.816;8.662;2023-12-20T14:22:19;6.13;;;1.50;;
21168;SDS011;10742;51.816;8.662;2023-12-20T14:25:41;3.93;;;1.43;;
21168;SDS011;10742;51.816;8.662;2023-12-20T14:29:05;4.63;;;1.40;;
21168;SDS011;10742;51.816;8.662;2023-12-20T14:32:28;6.43;;;1.40;;
21168;SDS011;10742;51.816;8.662;2023-12-20T14:35:49;3.43;;;1.40;;
21168;SDS011;10742;51.816;8.662;2023-12-20T14:39:11;6.40;;;1.70;;
21168;SDS011;10742;51.816;8.662;2023-12-20T14:42:33;5.87;;;1.50;;
21168;SDS011;10742;51.816;8.662;2023-12-20T14:45:55;8.60;;;2.47;;
21168;SDS011;10742;51.816;8.662;2023-12-20T14:49:16;12.53;;;3.73;;
21168;SDS011;10742;51.816;8.662;2023-12-20T14:52:38;6.87;;;2.80;;
21168;SDS011;10742;51.816;8.662;2023-12-20T14:55:59;10.10;;;3.20;;
21168;SDS011;10742;51.816;8.662;2023-12-20T14:59:21;14.60;;;5.27;;
21168;SDS011;10742;51.816;8.662;2023-12-20T15:02:43;16.67;;;4.30;;
21168;SDS011;10742;51.816;8.662;2023-12-20T15:06:05;7.30;;;2.30;;
21168;SDS011;10742;51.816;8.662;2023-12-20T15:09:27;3.97;;;2.37;;
21168;SDS011;10742;51.816;8.662;2023-12-20T15:12:50;6.10;;;2.20;;
21168;SDS011;10742;51.816;8.662;2023-12-20T15:16:11;8.47;;;3.03;;
21168;SDS011;10742;51.816;8.662;2023-12-20T15:19:33;12.47;;;3.33;;
21168;SDS011;10742;51.816;8.662;2023-12-20T15:22:54;14.67;;;4.23;;
21168;SDS011;10742;51.816;8.662;2023-12-20T15:26:16;16.50;;;4.17;;
21168;SDS011;10742;51.816;8.662;2023-12-20T15:29:37;11.37;;;4.17;;
21168;SDS011;10742;51.816;8.662;2023-12-20T15:32:58;8.33;;;2.83;;
21168;SDS011;10742;51.816;8.662;2023-12-20T15:36:20;21.23;;;5.80;;
21168;SDS011;10742;51.816;8.662;2023-12-20T15:39:42;21.20;;;7.73;;
21168;SDS011;10742;51.816;8.662;2023-12-20T15:43:03;24.37;;;7.73;;
21168;SDS011;10742;51.816;8.662;2023-12-20T15:46:25;20.27;;;6.40;;
21168;SDS011;10742;51.816;8.662;2023-12-20T15:49:47;13.97;;;6.23;;
21168;SDS011;10742;51.816;8.662;2023-12-20T15:53:10;16.73;;;6.00;;
21168;SDS011;10742;51.816;8.662;2023-12-20T15:56:31;23.70;;;6.33;;
21168;SDS011;10742;51.816;8.662;2023-12-20T15:59:53;19.07;;;6.60;;
21168;SDS011;10742;51.816;8.662;2023-12-20T16:03:15;17.87;;;5.80;;
21168;SDS011;10742;51.816;8.662;2023-12-20T16:06:36;16.17;;;6.50;;
21168;SDS011;10742;51.816;8.662;2023-12-20T16:09:57;22.67;;;7.40;;
21168;SDS011;10742;51.816;8.662;2023-12-20T16:13:20;20.13;;;7.23;;
21168;SDS011;10742;51.816;8.662;2023-12-20T16:16:42;18.17;;;7.50;;
21168;SDS011;10742;51.816;8.662;2023-12-20T16:20:03;22.07;;;7.43;;
21168;SDS011;10742;51.816;8.662;2023-12-20T16:23:26;20.37;;;7.77;;
21168;SDS011;10742;51.816;8.662;2023-12-20T16:26:47;18.23;;;7.33;;
21168;SDS011;10742;51.816;8.662;2023-12-20T16:30:08;23.03;;;7.63;;
21168;SDS011;10742;51.816;8.662;2023-12-20T16:33:30;20.03;;;7.20;;
21168;SDS011;10742;51.816;8.662;2023-12-20T16:36:52;20.77;;;8.07;;
21168;SDS011;10742;51.816;8.662;2023-12-20T16:40:15;20.57;;;7.67;;
21168;SDS011;10742;51.816;8.662;2023-12-20T16:43:36;21.67;;;8.40;;
21168;SDS011;10742;51.816;8.662;2023-12-20T16:46:57;22.30;;;8.17;;
21168;SDS011;10742;51.816;8.662;2023-12-20T16:50:19;26.70;;;8.63;;
21168;SDS011;10742;51.816;8.662;2023-12-20T16:53:40;22.40;;;9.27;;
21168;SDS011;10742;51.816;8.662;2023-12-20T16:57:02;28.97;;;10.50;;
21168;SDS011;10742;51.816;8.662;2023-12-20T17:00:23;22.40;;;8.77;;
21168;SDS011;10742;51.816;8.662;2023-12-20T17:03:47;21.63;;;8.53;;
21168;SDS011;10742;51.816;8.662;2023-12-20T17:07:08;25.83;;;8.20;;
21168;SDS011;10742;51.816;8.662;2023-12-20T17:10:30;19.87;;;8.50;;
21168;SDS011;10742;51.816;8.662;2023-12-20T17:13:51;21.20;;;8.50;;
21168;SDS011;10742;51.816;8.662;2023-12-20T17:17:13;20.03;;;8.47;;
21168;SDS011;10742;51.816;8.662;2023-12-20T17:20:34;22.87;;;8.10;;
21168;SDS011;10742;51.816;8.662;2023-12-20T17:23:56;27.47;;;11.10;;
21168;SDS011;10742;51.816;8.662;2023-12-20T17:27:17;27.33;;;9.87;;
21168;SDS011;10742;51.816;8.662;2023-12-20T17:30:38;25.83;;;9.30;;
21168;SDS011;10742;51.816;8.662;2023-12-20T17:34:00;27.30;;;9.87;;
21168;SDS011;10742;51.816;8.662;2023-12-20T17:37:21;25.83;;;9.53;;
21168;SDS011;10742;51.816;8.662;2023-12-20T17:40:43;31.00;;;12.73;;
21168;SDS011;10742;51.816;8.662;2023-12-20T17:44:05;29.60;;;10.20;;
21168;SDS011;10742;51.816;8.662;2023-12-20T17:47:26;34.10;;;14.87;;
21168;SDS011;10742;51.816;8.662;2023-12-20T17:50:48;31.43;;;12.03;;
21168;SDS011;10742;51.816;8.662;2023-12-20T17:54:09;27.47;;;11.07;;
21168;SDS011;10742;51.816;8.662;2023-12-20T17:57:31;29.40;;;11.00;;
21168;SDS011;10742;51.816;8.662;2023-12-20T18:00:52;25.67;;;9.70;;
21168;SDS011;10742;51.816;8.662;2023-12-20T18:04:13;25.03;;;9.40;;
21168;SDS011;10742;51.816;8.662;2023-12-20T18:07:35;22.30;;;10.40;;
21168;SDS011;10742;51.816;8.662;2023-12-20T18:10:59;25.03;;;9.87;;
21168;SDS011;10742;51.816;8.662;2023-12-20T18:14:20;26.30;;;10.47;;
21168;SDS011;10742;51.816;8.662;2023-12-20T18:17:43;26.33;;;9.23;;
21168;SDS011;10742;51.816;8.662;2023-12-20T18:21:04;20.97;;;8.47;;
21168;SDS011;10742;51.816;8.662;2023-12-20T18:24:26;22.93;;;9.03;;
21168;SDS011;10742;51.816;8.662;2023-12-20T18:27:47;23.17;;;7.97;;
21168;SDS011;10742;51.816;8.662;2023-12-20T18:31:09;20.70;;;8.10;;
21168;SDS011;10742;51.816;8.662;2023-12-20T18:34:30;26.43;;;8.83;;
21168;SDS011;10742;51.816;8.662;2023-12-20T18:37:54;25.97;;;10.00;;
21168;SDS011;10742;51.816;8.662;2023-12-20T18:41:15;23.10;;;8.43;;
21168;SDS011;10742;51.816;8.662;2023-12-20T18:44:37;24.87;;;9.37;;
21168;SDS011;10742;51.816;8.662;2023-12-20T18:47:59;24.63;;;8.90;;
21168;SDS011;10742;51.816;8.662;2023-12-20T18:51:21;21.43;;;7.77;;
21168;SDS011;10742;51.816;8.662;2023-12-20T18:54:42;26.50;;;10.43;;
21168;SDS011;10742;51.816;8.662;2023-12-20T18:58:04;23.93;;;9.57;;
21168;SDS011;10742;51.816;8.662;2023-12-20T19:01:25;20.13;;;9.03;;
21168;SDS011;10742;51.816;8.662;2023-12-20T19:04:47;19.30;;;8.23;;
21168;SDS011;10742;51.816;8.662;2023-12-20T19:08:08;17.80;;;7.67;;
21168;SDS011;10742;51.816;8.662;2023-12-20T19:11:29;19.37;;;7.67;;
21168;SDS011;10742;51.816;8.662;2023-12-20T19:14:52;19.97;;;7.90;;
21168;SDS011;10742;51.816;8.662;2023-12-20T19:18:14;18.10;;;7.53;;
21168;SDS011;10742;51.816;8.662;2023-12-20T19:21:35;24.07;;;9.17;;
21168;SDS011;10742;51.816;8.662;2023-12-20T19:24:56;20.30;;;7.87;;
21168;SDS011;10742;51.816;8.662;2023-12-20T19:28:20;20.33;;;8.17;;
21168;SDS011;10742;51.816;8.662;2023-12-20T19:31:41;19.87;;;7.43;;
21168;SDS011;10742;51.816;8.662;2023-12-20T19:35:03;19.03;;;7.50;;
21168;SDS011;10742;51.816;8.662;2023-12-20T19:38:24;19.97;;;7.03;;
21168;SDS011;10742;51.816;8.662;2023-12-20T19:41:46;19.13;;;6.47;;
21168;SDS011;10742;51.816;8.662;2023-12-20T19:45:08;17.20;;;6.93;;
21168;SDS011;10742;51.816;8.662;2023-12-20T19:48:31;23.87;;;8.90;;
21168;SDS011;10742;51.816;8.662;2023-12-20T19:51:52;16.37;;;7.30;;
21168;SDS011;10742;51.816;8.662;2023-12-20T19:55:13;19.63;;;6.33;;
21168;SDS011;10742;51.816;8.662;2023-12-20T19:58:35;17.00;;;6.23;;
21168;SDS011;10742;51.816;8.662;2023-12-20T20:01:56;16.00;;;6.20;;
21168;SDS011;10742;51.816;8.662;2023-12-20T20:05:20;16.27;;;6.37;;